Time;durP1;ratioP1;P1;durP2;ratioP2;P2;SDS_P1;SDS_P2;PMS_P1;PMS_P2;Temp;Humidity;BMP_temperature;BMP_pressure;BME280_temperature;BME280_humidity;BME280_pressure;Samples;Min_cycle;Max_cycle;Signal;HPM_P1;HPM_P2
2022/02/28 00:00:21;;;;;;;0.20;0.20;;;;;;;;;;4129998;28;20054;-58
2022/02/28 00:02:22;;;;;;;0.40;0.10;;;;;;;;;;4129854;28;20050;-59
2022/02/28 00:04:25;;;;;;;0.65;0.10;;;;;;;;;;4130095;28;20120;-59
2022/02/28 00:06:26;;;;;;;0.63;0.20;;;;;;;;;;4130277;28;20058;-60
2022/02/28 00:08:27;;;;;;;0.30;0.10;;;;;;;;;;4129865;28;20062;-60
2022/02/28 00:10:29;;;;;;;0.40;0.20;;;;;;;;;;4112448;28;20129;-59
2022/02/28 00:12:30;;;;;;;0.20;0.15;;;;;;;;;;4130047;28;20113;-59
2022/02/28 00:14:31;;;;;;;0.50;0.20;;;;;;;;;;4129888;28;20109;-58
2022/02/28 00:16:32;;;;;;;0.40;0.20;;;;;;;;;;4112841;28;20051;-58
2022/02/28 00:18:34;;;;;;;0.38;0.20;;;;;;;;;;4129398;28;20062;-59
2022/02/28 00:20:35;;;;;;;0.45;0.22;;;;;;;;;;4129870;28;20134;-58
2022/02/28 00:22:36;;;;;;;0.15;0.10;;;;;;;;;;4130057;28;20062;-59
2022/02/28 00:24:37;;;;;;;1.05;0.40;;;;;;;;;;4129819;28;20457;-59
2022/02/28 00:26:38;;;;;;;0.30;0.20;;;;;;;;;;4129498;28;20128;-59
2022/02/28 00:28:40;;;;;;;0.32;0.13;;;;;;;;;;4112277;28;20154;-59
2022/02/28 00:30:41;;;;;;;0.88;0.25;;;;;;;;;;4129591;28;20095;-59
2022/02/28 00:32:44;;;;;;;1.30;0.68;;;;;;;;;;4120066;28;20495;-60
2022/02/28 00:34:46;;;;;;;0.20;0.17;;;;;;;;;;4114547;28;20125;-59
2022/02/28 00:36:47;;;;;;;0.20;0.10;;;;;;;;;;4099831;29;20093;-59
2022/02/28 00:38:48;;;;;;;0.50;0.20;;;;;;;;;;4116929;28;20066;-60
2022/02/28 00:40:49;;;;;;;0.17;0.17;;;;;;;;;;4115765;28;20061;-59
2022/02/28 00:42:50;;;;;;;0.43;0.15;;;;;;;;;;4115499;28;20054;-58
2022/02/28 00:44:51;;;;;;;0.17;0.15;;;;;;;;;;4099770;29;20062;-59
2022/02/28 00:46:53;;;;;;;0.30;0.20;;;;;;;;;;4116393;28;20107;-59
2022/02/28 00:48:54;;;;;;;0.15;0.10;;;;;;;;;;4116966;28;20066;-59
2022/02/28 00:50:55;;;;;;;0.20;0.10;;;;;;;;;;4115433;28;20086;-59
2022/02/28 00:52:57;;;;;;;0.35;0.17;;;;;;;;;;4116589;28;20125;-58
2022/02/28 00:54:58;;;;;;;0.52;0.20;;;;;;;;;;4116721;28;20365;-57
2022/02/28 00:56:59;;;;;;;0.57;0.20;;;;;;;;;;4116486;28;20113;-59
2022/02/28 00:59:00;;;;;;;0.90;0.20;;;;;;;;;;4116907;28;20108;-59
2022/02/28 01:01:02;;;;;;;0.30;0.20;;;;;;;;;;4116791;28;20066;-59
2022/02/28 01:03:03;;;;;;;0.47;0.10;;;;;;;;;;4114735;28;20058;-59
2022/02/28 01:05:05;;;;;;;0.15;0.15;;;;;;;;;;4116651;28;20510;-58
2022/02/28 01:07:06;;;;;;;0.50;0.17;;;;;;;;;;4123632;28;20058;-59
2022/02/28 01:09:07;;;;;;;0.50;0.30;;;;;;;;;;4132476;28;20101;-59
2022/02/28 01:11:09;;;;;;;0.30;0.10;;;;;;;;;;4132475;28;20128;-60
2022/02/28 01:13:10;;;;;;;0.38;0.17;;;;;;;;;;4132582;28;20062;-59
2022/02/28 01:15:12;;;;;;;0.20;0.20;;;;;;;;;;4132449;28;20062;-58
2022/02/28 01:17:14;;;;;;;0.20;0.13;;;;;;;;;;4130712;28;20693;-60
2022/02/28 01:19:15;;;;;;;0.30;0.20;;;;;;;;;;4131356;28;20101;-59
2022/02/28 01:21:16;;;;;;;0.43;0.30;;;;;;;;;;4116565;28;20078;-59
2022/02/28 01:23:18;;;;;;;1.13;0.20;;;;;;;;;;4131137;28;20058;-59
2022/02/28 01:25:19;;;;;;;0.10;0.10;;;;;;;;;;4141196;28;20058;-59
2022/02/28 01:27:22;;;;;;;0.35;0.10;;;;;;;;;;4148342;28;20062;-59
2022/02/28 01:29:23;;;;;;;0.20;0.20;;;;;;;;;;4131252;28;20126;-59
2022/02/28 01:31:24;;;;;;;0.20;0.10;;;;;;;;;;4131074;28;20116;-59
2022/02/28 01:33:25;;;;;;;1.05;0.22;;;;;;;;;;4147920;28;20551;-59
2022/02/28 01:35:27;;;;;;;0.30;0.13;;;;;;;;;;4148739;28;20069;-59
2022/02/28 01:37:28;;;;;;;0.22;0.20;;;;;;;;;;4130959;28;20057;-60
2022/02/28 01:39:30;;;;;;;0.75;0.20;;;;;;;;;;4147204;28;20557;-59
2022/02/28 01:41:34;;;;;;;0.65;0.10;;;;;;;;;;4148458;28;20053;-59
2022/02/28 01:43:35;;;;;;;0.55;0.20;;;;;;;;;;4148184;28;20121;-60
2022/02/28 01:45:36;;;;;;;0.20;0.20;;;;;;;;;;4146971;28;20054;-59
2022/02/28 01:47:37;;;;;;;0.13;0.10;;;;;;;;;;4129304;28;20510;-59
2022/02/28 01:49:39;;;;;;;0.13;0.10;;;;;;;;;;4130774;28;20108;-60
2022/02/28 01:51:40;;;;;;;0.20;0.20;;;;;;;;;;4148014;28;20567;-57
2022/02/28 01:53:42;;;;;;;0.10;0.10;;;;;;;;;;4147083;28;20053;-60
2022/02/28 01:55:43;;;;;;;0.30;0.10;;;;;;;;;;4148049;28;20127;-60
2022/02/28 01:57:45;;;;;;;0.35;0.20;;;;;;;;;;4146590;28;20413;-59
2022/02/28 01:59:47;;;;;;;0.25;0.10;;;;;;;;;;4114877;28;20070;-59
2022/02/28 02:01:48;;;;;;;0.43;0.43;;;;;;;;;;4147599;28;20057;-59
2022/02/28 02:03:50;;;;;;;0.35;0.13;;;;;;;;;;4148125;28;20092;-59
2022/02/28 02:05:51;;;;;;;0.38;0.20;;;;;;;;;;4148345;28;20064;-59
2022/02/28 02:07:52;;;;;;;0.28;0.10;;;;;;;;;;4130478;28;20058;-59
2022/02/28 02:09:54;;;;;;;0.20;0.20;;;;;;;;;;4148440;28;20103;-59
2022/02/28 02:11:55;;;;;;;0.17;0.10;;;;;;;;;;4146441;28;20141;-59
2022/02/28 02:13:58;;;;;;;0.25;0.10;;;;;;;;;;4146778;28;20073;-60
2022/02/28 02:16:00;;;;;;;0.88;0.20;;;;;;;;;;4146487;28;20058;-60
2022/02/28 02:18:04;;;;;;;0.32;0.17;;;;;;;;;;4129978;28;20062;-60
2022/02/28 02:20:25;;;;;;;0.55;0.15;;;;;;;;;;4130236;28;20109;-60
2022/02/28 02:22:26;;;;;;;0.52;0.22;;;;;;;;;;4120183;28;20105;-59
2022/02/28 02:24:27;;;;;;;0.10;0.10;;;;;;;;;;4146312;28;20119;-60
2022/02/28 02:26:28;;;;;;;0.15;0.10;;;;;;;;;;4147550;28;20054;-60
2022/02/28 02:28:29;;;;;;;0.35;0.10;;;;;;;;;;4130087;28;20109;-57
2022/02/28 02:30:31;;;;;;;0.57;0.25;;;;;;;;;;4147704;28;20116;-59
2022/02/28 02:32:33;;;;;;;0.30;0.10;;;;;;;;;;4138194;28;20050;-59
2022/02/28 02:34:34;;;;;;;0.32;0.10;;;;;;;;;;4114078;28;20474;-60
2022/02/28 02:36:39;;;;;;;0.30;0.10;;;;;;;;;;4131235;28;20046;-59
2022/02/28 02:38:41;;;;;;;0.20;0.20;;;;;;;;;;4114069;28;20066;-59
2022/02/28 02:40:42;;;;;;;0.35;0.10;;;;;;;;;;4131231;28;20492;-60
2022/02/28 02:42:43;;;;;;;0.60;0.22;;;;;;;;;;4131022;28;20054;-59
2022/02/28 02:44:44;;;;;;;0.20;0.20;;;;;;;;;;4129795;28;20500;-59
2022/02/28 02:46:47;;;;;;;0.30;0.20;;;;;;;;;;4113322;28;20055;-59
2022/02/28 02:48:54;;;;;;;0.30;0.20;;;;;;;;;;4130062;28;20062;-59
2022/02/28 02:50:56;;;;;;;0.10;0.10;;;;;;;;;;4129645;28;20553;-59
2022/02/28 02:52:57;;;;;;;0.10;0.10;;;;;;;;;;4113584;28;20055;-59
2022/02/28 02:55:01;;;;;;;0.40;0.17;;;;;;;;;;4113682;28;20134;-59
2022/02/28 02:57:05;;;;;;;0.73;0.10;;;;;;;;;;4113529;28;20082;-57
2022/02/28 02:59:06;;;;;;;0.52;0.30;;;;;;;;;;4113490;28;20054;-59
2022/02/28 03:01:08;;;;;;;1.38;0.30;;;;;;;;;;4129672;28;20501;-59
2022/02/28 03:03:11;;;;;;;0.22;0.10;;;;;;;;;;4113083;28;20462;-59
2022/02/28 03:05:13;;;;;;;0.47;0.28;;;;;;;;;;4113396;28;20055;-59
2022/02/28 03:07:19;;;;;;;0.10;0.10;;;;;;;;;;4137832;28;20593;-59
2022/02/28 03:09:21;;;;;;;0.10;0.10;;;;;;;;;;4113769;28;20073;-58
2022/02/28 03:11:25;;;;;;;0.13;0.13;;;;;;;;;;4146642;28;20058;-59
2022/02/28 03:13:26;;;;;;;0.20;0.10;;;;;;;;;;4129354;28;20054;-59
2022/02/28 03:15:31;;;;;;;0.32;0.10;;;;;;;;;;4145616;28;20116;-59
2022/02/28 03:17:34;;;;;;;0.00;0.00;;;;;;;;;;4128958;28;20057;-60
2022/02/28 03:19:35;;;;;;;0.38;0.15;;;;;;;;;;4146649;28;20062;-59
2022/02/28 03:21:37;;;;;;;0.20;0.10;;;;;;;;;;4146822;28;20302;-58
2022/02/28 03:23:38;;;;;;;0.10;0.10;;;;;;;;;;4129326;28;20108;-59
2022/02/28 03:25:44;;;;;;;0.08;0.05;;;;;;;;;;4145814;28;20061;-59
2022/02/28 03:27:45;;;;;;;0.17;0.13;;;;;;;;;;4145043;28;20053;-59
2022/02/28 03:29:47;;;;;;;0.20;0.10;;;;;;;;;;4145348;28;20053;-59
2022/02/28 03:31:48;;;;;;;0.00;0.00;;;;;;;;;;4144918;28;20168;-59
2022/02/28 03:33:55;;;;;;;0.10;0.10;;;;;;;;;;4129898;28;20058;-59
2022/02/28 03:35:56;;;;;;;0.28;0.20;;;;;;;;;;4145171;28;20132;-59
2022/02/28 03:38:02;;;;;;;0.55;0.20;;;;;;;;;;4129292;28;20054;-59
2022/02/28 03:40:04;;;;;;;0.20;0.10;;;;;;;;;;4129131;28;20128;-59
2022/02/28 03:42:06;;;;;;;0.40;0.20;;;;;;;;;;4128956;28;20442;-60
2022/02/28 03:44:08;;;;;;;0.20;0.10;;;;;;;;;;4146521;28;20065;-59
2022/02/28 03:46:15;;;;;;;0.20;0.10;;;;;;;;;;4145222;28;20061;-59
2022/02/28 03:48:42;;;;;;;0.17;0.15;;;;;;;;;;4146357;28;20462;-59
2022/02/28 03:51:04;;;;;;;0.38;0.17;;;;;;;;;;4129383;28;20054;-57
2022/02/28 03:53:05;;;;;;;0.28;0.10;;;;;;;;;;4146176;28;20065;-59
2022/02/28 03:55:11;;;;;;;0.50;0.20;;;;;;;;;;4145602;28;20100;-58
2022/02/28 03:57:12;;;;;;;0.20;0.10;;;;;;;;;;4126102;28;20462;-58
2022/02/28 03:59:14;;;;;;;0.20;0.15;;;;;;;;;;4112800;28;20199;-59
2022/02/28 04:01:15;;;;;;;0.28;0.10;;;;;;;;;;4130008;28;20501;-59
2022/02/28 04:03:22;;;;;;;0.28;0.13;;;;;;;;;;4128149;28;20062;-59
2022/02/28 04:05:24;;;;;;;0.10;0.10;;;;;;;;;;4112700;28;20058;-59
2022/02/28 04:07:27;;;;;;;0.20;0.20;;;;;;;;;;4112488;28;20058;-60
2022/02/28 04:09:34;;;;;;;0.30;0.30;;;;;;;;;;4127222;28;20058;-59
2022/02/28 04:11:42;;;;;;;0.30;0.20;;;;;;;;;;4128657;28;20062;-59
2022/02/28 04:13:43;;;;;;;0.10;0.10;;;;;;;;;;4096961;28;20106;-59
2022/02/28 04:15:46;;;;;;;0.10;0.10;;;;;;;;;;4112507;28;20511;-59
2022/02/28 04:17:47;;;;;;;0.52;0.40;;;;;;;;;;4111977;28;20082;-58
2022/02/28 04:19:52;;;;;;;0.10;0.10;;;;;;;;;;4128712;28;20062;-59
2022/02/28 04:21:53;;;;;;;0.10;0.10;;;;;;;;;;4112438;28;20062;-60
2022/02/28 04:23:55;;;;;;;0.10;0.10;;;;;;;;;;4112494;28;20063;-59
2022/02/28 04:25:56;;;;;;;0.28;0.13;;;;;;;;;;4112452;28;20443;-59
2022/02/28 04:27:57;;;;;;;0.20;0.10;;;;;;;;;;4125641;28;20117;-59
2022/02/28 04:30:03;;;;;;;0.10;0.10;;;;;;;;;;4128611;28;20062;-58
2022/02/28 04:32:04;;;;;;;0.40;0.30;;;;;;;;;;4108094;28;20462;-59
2022/02/28 04:34:10;;;;;;;0.10;0.10;;;;;;;;;;4112460;28;20059;-59
2022/02/28 04:36:11;;;;;;;0.28;0.20;;;;;;;;;;4112247;28;20200;-59
2022/02/28 04:38:13;;;;;;;0.52;0.20;;;;;;;;;;4112029;28;20050;-59
2022/02/28 04:40:15;;;;;;;0.10;0.10;;;;;;;;;;4112236;28;20113;-60
2022/02/28 04:42:16;;;;;;;0.32;0.20;;;;;;;;;;4112270;28;20074;-59
2022/02/28 04:44:18;;;;;;;0.32;0.10;;;;;;;;;;4096553;29;20452;-59
2022/02/28 04:46:20;;;;;;;0.25;0.10;;;;;;;;;;4112336;28;20059;-59
2022/02/28 04:48:21;;;;;;;0.30;0.10;;;;;;;;;;4111830;28;20065;-57
2022/02/28 04:50:43;;;;;;;0.20;0.10;;;;;;;;;;4113613;28;20132;-58
2022/02/28 04:52:44;;;;;;;0.47;0.10;;;;;;;;;;4112264;28;20447;-59
2022/02/28 04:54:48;;;;;;;0.88;0.20;;;;;;;;;;4096309;29;20059;-58
2022/02/28 04:56:49;;;;;;;0.70;0.20;;;;;;;;;;4112193;28;20113;-59
2022/02/28 04:58:51;;;;;;;0.38;0.20;;;;;;;;;;4113376;28;20559;-59
2022/02/28 05:01:27;;;;;;;0.10;0.10;;;;;;;;;;4106801;28;20117;-59
2022/02/28 05:03:30;;;;;;;0.20;0.15;;;;;;;;;;4111805;28;20113;-58
2022/02/28 05:05:33;;;;;;;0.57;0.13;;;;;;;;;;4096706;28;20531;-59
2022/02/28 05:07:35;;;;;;;1.02;0.47;;;;;;;;;;4133756;28;20069;-59
2022/02/28 05:09:40;;;;;;;0.57;0.20;;;;;;;;;;4128266;28;20113;-59
2022/02/28 05:11:42;;;;;;;0.43;0.10;;;;;;;;;;4128208;28;20109;-59
2022/02/28 05:13:52;;;;;;;0.05;0.05;;;;;;;;;;4128358;28;20084;-59
2022/02/28 05:15:57;;;;;;;0.15;0.10;;;;;;;;;;4143791;28;20080;-60
2022/02/28 05:17:59;;;;;;;0.20;0.17;;;;;;;;;;4127630;28;20415;-58
2022/02/28 05:20:01;;;;;;;0.25;0.10;;;;;;;;;;4128258;28;20093;-59
2022/02/28 05:22:06;;;;;;;0.40;0.20;;;;;;;;;;4130735;28;20406;-60
2022/02/28 05:24:17;;;;;;;0.38;0.10;;;;;;;;;;4147227;28;20058;-58
2022/02/28 05:26:19;;;;;;;0.73;0.10;;;;;;;;;;4131035;28;20062;-60
2022/02/28 05:28:20;;;;;;;0.30;0.20;;;;;;;;;;4131044;28;20109;-58
2022/02/28 05:30:21;;;;;;;0.20;0.10;;;;;;;;;;4147210;28;20057;-59
2022/02/28 05:32:26;;;;;;;0.20;0.20;;;;;;;;;;4127608;28;20104;-59
2022/02/28 05:35:04;;;;;;;0.40;0.20;;;;;;;;;;4130878;28;20065;-60
2022/02/28 05:37:26;;;;;;;0.10;0.10;;;;;;;;;;4146612;28;20057;-58
2022/02/28 05:39:33;;;;;;;0.35;0.20;;;;;;;;;;4129481;28;20070;-59
2022/02/28 05:41:34;;;;;;;0.20;0.15;;;;;;;;;;4129310;28;20129;-59
2022/02/28 05:43:37;;;;;;;0.40;0.20;;;;;;;;;;4129441;28;20054;-57
2022/02/28 05:45:39;;;;;;;0.20;0.15;;;;;;;;;;4119998;28;20054;-59
2022/02/28 05:47:56;;;;;;;0.75;0.20;;;;;;;;;;4114086;28;20155;-59
2022/02/28 05:49:59;;;;;;;0.60;0.20;;;;;;;;;;4113193;28;20098;-59
2022/02/28 05:52:00;;;;;;;0.15;0.15;;;;;;;;;;4114530;28;20110;-59
2022/02/28 05:54:02;;;;;;;0.25;0.10;;;;;;;;;;4131855;28;20132;-57
2022/02/28 05:56:06;;;;;;;1.48;0.20;;;;;;;;;;4131837;28;20494;-60
2022/02/28 05:58:07;;;;;;;0.63;0.30;;;;;;;;;;4121259;28;20062;-59
2022/02/28 06:00:09;;;;;;;1.20;0.50;;;;;;;;;;4130538;28;20109;-57
2022/02/28 06:02:18;;;;;;;0.85;0.30;;;;;;;;;;4113424;28;20440;-59
2022/02/28 06:04:21;;;;;;;0.50;0.20;;;;;;;;;;4113787;28;20113;-57
2022/02/28 06:06:23;;;;;;;0.98;0.28;;;;;;;;;;4113819;28;20055;-59
2022/02/28 06:08:27;;;;;;;0.95;0.30;;;;;;;;;;4113465;28;20134;-59
2022/02/28 06:10:34;;;;;;;0.28;0.20;;;;;;;;;;4113842;28;20059;-59
2022/02/28 06:12:38;;;;;;;0.70;0.30;;;;;;;;;;4113077;28;20573;-59
2022/02/28 06:14:39;;;;;;;1.27;0.47;;;;;;;;;;4113350;28;20054;-57
2022/02/28 06:16:41;;;;;;;1.52;0.32;;;;;;;;;;4112908;28;20055;-59
2022/02/28 06:18:45;;;;;;;0.47;0.20;;;;;;;;;;4113487;28;20055;-58
2022/02/28 06:20:46;;;;;;;1.05;0.30;;;;;;;;;;4080372;29;20051;-57
2022/02/28 06:22:48;;;;;;;1.08;0.22;;;;;;;;;;4113408;28;20062;-59
2022/02/28 06:24:51;;;;;;;0.52;0.30;;;;;;;;;;4095878;28;20452;-58
2022/02/28 06:26:52;;;;;;;1.13;0.28;;;;;;;;;;4113301;28;20570;-57
2022/02/28 06:29:03;;;;;;;1.90;0.40;;;;;;;;;;4119571;28;20058;-57
2022/02/28 06:31:05;;;;;;;0.52;0.20;;;;;;;;;;4129292;28;20058;-56
2022/02/28 06:33:06;;;;;;;1.23;0.30;;;;;;;;;;4118224;28;20109;-57
2022/02/28 06:35:08;;;;;;;1.77;0.32;;;;;;;;;;4126902;28;20073;-58
2022/02/28 06:37:11;;;;;;;0.75;0.30;;;;;;;;;;4127323;28;20050;-58
2022/02/28 06:39:13;;;;;;;1.23;0.22;;;;;;;;;;4111565;28;20069;-58
2022/02/28 06:41:14;;;;;;;2.88;0.35;;;;;;;;;;4128892;28;20062;-59
2022/02/28 06:43:20;;;;;;;0.77;0.13;;;;;;;;;;4128761;28;20062;-58
2022/02/28 06:45:24;;;;;;;2.20;0.20;;;;;;;;;;4128919;28;20524;-58
2022/02/28 06:47:28;;;;;;;1.85;0.20;;;;;;;;;;4128281;28;20644;-59
2022/02/28 06:49:29;;;;;;;0.40;0.30;;;;;;;;;;4127684;28;20120;-59
2022/02/28 06:51:35;;;;;;;0.40;0.30;;;;;;;;;;4127225;28;20066;-57
2022/02/28 06:53:36;;;;;;;0.90;0.30;;;;;;;;;;4110498;28;20141;-58
2022/02/28 06:55:40;;;;;;;1.33;0.30;;;;;;;;;;4128360;28;20765;-56
2022/02/28 06:57:48;;;;;;;0.65;0.30;;;;;;;;;;4126121;28;20125;-59
2022/02/28 06:59:52;;;;;;;1.83;0.30;;;;;;;;;;4128510;28;20058;-59
2022/02/28 07:01:53;;;;;;;0.32;0.20;;;;;;;;;;4110678;28;20125;-60
2022/02/28 07:04:07;;;;;;;1.00;0.30;;;;;;;;;;4124196;28;20058;-60
2022/02/28 07:06:20;;;;;;;1.65;0.30;;;;;;;;;;4124907;28;20058;-59
2022/02/28 07:08:22;;;;;;;0.22;0.20;;;;;;;;;;4111642;28;20058;-59
2022/02/28 07:10:23;;;;;;;1.17;0.40;;;;;;;;;;4128866;28;20126;-58
2022/02/28 07:12:24;;;;;;;0.85;0.30;;;;;;;;;;4130716;28;20142;-58
2022/02/28 07:14:33;;;;;;;0.20;0.20;;;;;;;;;;4130589;28;20513;-58
2022/02/28 07:16:34;;;;;;;0.45;0.32;;;;;;;;;;4133591;28;20046;-57
2022/02/28 07:18:36;;;;;;;0.57;0.38;;;;;;;;;;4129899;28;20054;-58
2022/02/28 07:20:37;;;;;;;0.68;0.30;;;;;;;;;;4130786;28;20066;-59
2022/02/28 07:22:41;;;;;;;0.77;0.25;;;;;;;;;;4120674;28;20146;-59
2022/02/28 07:24:45;;;;;;;0.90;0.35;;;;;;;;;;4123215;28;20081;-59
2022/02/28 07:26:49;;;;;;;1.35;0.20;;;;;;;;;;4120762;28;20113;-58
2022/02/28 07:28:51;;;;;;;1.30;0.30;;;;;;;;;;4127222;28;20073;-59
2022/02/28 07:30:53;;;;;;;0.50;0.20;;;;;;;;;;4121453;28;20073;-58
2022/02/28 07:32:54;;;;;;;0.45;0.25;;;;;;;;;;4117496;28;20669;-58
2022/02/28 07:34:55;;;;;;;0.65;0.28;;;;;;;;;;4122620;28;20074;-58
2022/02/28 07:36:58;;;;;;;0.50;0.30;;;;;;;;;;4119708;28;20091;-59
2022/02/28 07:39:01;;;;;;;1.48;0.30;;;;;;;;;;4119399;28;20070;-58
2022/02/28 07:41:08;;;;;;;0.85;0.50;;;;;;;;;;4121202;28;20108;-57
2022/02/28 07:43:09;;;;;;;0.47;0.30;;;;;;;;;;4124005;28;20105;-58
2022/02/28 07:45:16;;;;;;;0.20;0.20;;;;;;;;;;4123192;28;20058;-56
2022/02/28 07:47:17;;;;;;;0.82;0.20;;;;;;;;;;4127209;28;20340;-56
2022/02/28 07:49:22;;;;;;;0.75;0.40;;;;;;;;;;4125726;28;20065;-57
2022/02/28 07:51:23;;;;;;;0.55;0.35;;;;;;;;;;4104233;28;20051;-58
2022/02/28 07:53:27;;;;;;;0.35;0.20;;;;;;;;;;4123179;28;20169;-56
2022/02/28 07:55:36;;;;;;;0.30;0.28;;;;;;;;;;4120476;28;20058;-57
2022/02/28 07:57:38;;;;;;;1.55;0.20;;;;;;;;;;4129509;28;20058;-58
2022/02/28 07:59:44;;;;;;;0.55;0.40;;;;;;;;;;4123487;28;20061;-57
2022/02/28 08:01:52;;;;;;;4.18;0.32;;;;;;;;;;4120626;28;20499;-58
2022/02/28 08:03:57;;;;;;;0.55;0.30;;;;;;;;;;4110307;28;20116;-57
2022/02/28 08:06:01;;;;;;;0.60;0.30;;;;;;;;;;4119130;28;20062;-59
2022/02/28 08:08:03;;;;;;;0.55;0.20;;;;;;;;;;4106923;28;20067;-57
2022/02/28 08:10:05;;;;;;;0.93;0.20;;;;;;;;;;4122938;28;20188;-55
2022/02/28 08:12:08;;;;;;;0.98;0.30;;;;;;;;;;4119483;28;20105;-57
2022/02/28 08:14:10;;;;;;;1.88;0.52;;;;;;;;;;4125311;28;20560;-58
2022/02/28 08:16:11;;;;;;;1.02;0.38;;;;;;;;;;4124815;28;20058;-57
2022/02/28 08:18:15;;;;;;;1.00;0.30;;;;;;;;;;4106190;28;20059;-55
2022/02/28 08:20:16;;;;;;;2.53;0.45;;;;;;;;;;4123625;28;20124;-57
2022/02/28 08:22:17;;;;;;;0.73;0.30;;;;;;;;;;4124094;28;20467;-56
2022/02/28 08:24:18;;;;;;;0.55;0.40;;;;;;;;;;4118693;28;20166;-58
2022/02/28 08:26:19;;;;;;;1.02;0.40;;;;;;;;;;4123778;28;20050;-57
2022/02/28 08:28:29;;;;;;;1.00;0.60;;;;;;;;;;4121955;28;20058;-57
2022/02/28 08:30:33;;;;;;;0.38;0.30;;;;;;;;;;4121504;28;20101;-58
2022/02/28 08:32:34;;;;;;;1.05;0.30;;;;;;;;;;4121302;28;20062;-58
2022/02/28 08:34:35;;;;;;;1.17;0.30;;;;;;;;;;4122652;28;20058;-57
2022/02/28 08:36:40;;;;;;;1.65;0.55;;;;;;;;;;4121173;28;20113;-57
2022/02/28 08:38:41;;;;;;;0.63;0.35;;;;;;;;;;4126459;28;20465;-58
2022/02/28 08:40:45;;;;;;;2.55;0.63;;;;;;;;;;4125527;28;20918;-56
2022/02/28 08:42:48;;;;;;;0.65;0.32;;;;;;;;;;4080540;28;20711;-58
2022/02/28 08:44:51;;;;;;;2.72;0.50;;;;;;;;;;4120371;28;20058;-59
2022/02/28 08:46:53;;;;;;;0.43;0.30;;;;;;;;;;4125430;28;20435;-58
2022/02/28 08:48:54;;;;;;;0.43;0.25;;;;;;;;;;4106982;28;20063;-58
2022/02/28 08:50:57;;;;;;;0.70;0.40;;;;;;;;;;4120022;28;20054;-57
2022/02/28 08:52:59;;;;;;;2.13;0.93;;;;;;;;;;4106607;28;20102;-54
2022/02/28 08:55:04;;;;;;;0.60;0.30;;;;;;;;;;4124433;28;20062;-58
2022/02/28 08:57:05;;;;;;;0.35;0.35;;;;;;;;;;4109659;28;20473;-57
2022/02/28 08:59:07;;;;;;;1.92;0.30;;;;;;;;;;4122713;28;20501;-56
2022/02/28 09:01:08;;;;;;;0.50;0.47;;;;;;;;;;4100038;28;20130;-58
2022/02/28 09:03:09;;;;;;;0.63;0.22;;;;;;;;;;4119836;28;20875;-58
2022/02/28 09:05:11;;;;;;;0.95;0.40;;;;;;;;;;4102089;28;20070;-56
2022/02/28 09:07:15;;;;;;;0.68;0.40;;;;;;;;;;4101382;28;20503;-58
2022/02/28 09:09:16;;;;;;;0.75;0.32;;;;;;;;;;4120696;28;20058;-54
2022/02/28 09:11:19;;;;;;;0.98;0.45;;;;;;;;;;4127006;28;20104;-57
2022/02/28 09:13:33;;;;;;;0.60;0.47;;;;;;;;;;4126827;28;20058;-57
2022/02/28 09:15:36;;;;;;;1.48;0.60;;;;;;;;;;4125878;28;20518;-58
2022/02/28 09:17:40;;;;;;;0.52;0.30;;;;;;;;;;4127451;28;20077;-57
2022/02/28 09:19:41;;;;;;;0.75;0.28;;;;;;;;;;4126820;28;20089;-58
2022/02/28 09:21:50;;;;;;;2.60;0.47;;;;;;;;;;4122271;28;20066;-58
2022/02/28 09:23:51;;;;;;;1.80;0.40;;;;;;;;;;4125138;28;20153;-58
2022/02/28 09:25:52;;;;;;;0.82;0.43;;;;;;;;;;4118662;28;20062;-59
2022/02/28 09:27:54;;;;;;;0.30;0.30;;;;;;;;;;4116936;28;20058;-58
2022/02/28 09:30:01;;;;;;;0.43;0.20;;;;;;;;;;4121816;28;20059;-57
2022/02/28 09:32:03;;;;;;;1.35;0.40;;;;;;;;;;4125070;28;20058;-58
2022/02/28 09:34:05;;;;;;;1.17;0.60;;;;;;;;;;4109304;28;20454;-57
2022/02/28 09:36:07;;;;;;;0.40;0.30;;;;;;;;;;4125489;28;20418;-58
2022/02/28 09:38:08;;;;;;;0.20;0.20;;;;;;;;;;4122515;28;20153;-58
2022/02/28 09:40:10;;;;;;;0.75;0.35;;;;;;;;;;4127809;28;20054;-57
2022/02/28 09:42:12;;;;;;;1.27;0.50;;;;;;;;;;4122375;28;20058;-58
2022/02/28 09:44:33;;;;;;;0.82;0.32;;;;;;;;;;4126905;28;20058;-58
2022/02/28 09:46:59;;;;;;;0.90;0.30;;;;;;;;;;4078573;28;20054;-58
2022/02/28 09:49:19;;;;;;;0.57;0.40;;;;;;;;;;4110428;28;20152;-59
2022/02/28 09:51:55;;;;;;;0.68;0.38;;;;;;;;;;4030432;29;20075;-60
2022/02/28 09:54:32;;;;;;;0.75;0.28;;;;;;;;;;4072500;28;21082;-60
2022/02/28 09:56:52;;;;;;;1.52;0.60;;;;;;;;;;4108676;28;20101;-59
2022/02/28 09:59:19;;;;;;;0.88;0.40;;;;;;;;;;4106441;28;20134;-58
2022/02/28 10:01:20;;;;;;;1.08;0.47;;;;;;;;;;4109694;28;20101;-58
2022/02/28 10:03:27;;;;;;;8.48;0.65;;;;;;;;;;4112998;28;20114;-59
2022/02/28 10:05:28;;;;;;;1.35;0.30;;;;;;;;;;4112415;28;20105;-58
2022/02/28 10:07:29;;;;;;;0.73;0.50;;;;;;;;;;4128304;28;20057;-58
2022/02/28 10:09:31;;;;;;;2.17;0.30;;;;;;;;;;4127213;28;20058;-59
2022/02/28 10:11:35;;;;;;;2.08;0.40;;;;;;;;;;4108907;28;20063;-58
2022/02/28 10:13:38;;;;;;;2.50;0.40;;;;;;;;;;4123182;28;20116;-58
2022/02/28 10:15:39;;;;;;;0.93;0.32;;;;;;;;;;4125963;28;20120;-58
2022/02/28 10:17:59;;;;;;;0.85;0.35;;;;;;;;;;4125826;28;20133;-58
2022/02/28 10:20:01;;;;;;;0.80;0.38;;;;;;;;;;4121460;28;20062;-58
2022/02/28 10:22:06;;;;;;;0.63;0.32;;;;;;;;;;4110304;28;20094;-59
2022/02/28 10:24:13;;;;;;;0.47;0.20;;;;;;;;;;4122935;28;20065;-59
2022/02/28 10:26:49;;;;;;;2.75;0.30;;;;;;;;;;4086140;28;20063;-56
2022/02/28 10:29:10;;;;;;;1.55;0.40;;;;;;;;;;4111205;28;20081;-58
2022/02/28 10:31:50;;;;;;;0.95;0.40;;;;;;;;;;4092117;28;20051;-59
2022/02/28 10:34:21;;;;;;;1.00;0.43;;;;;;;;;;4095694;28;20099;-56
2022/02/28 10:36:25;;;;;;;0.35;0.30;;;;;;;;;;4109080;28;20412;-59
2022/02/28 10:38:32;;;;;;;2.30;0.35;;;;;;;;;;4102633;28;20101;-59
2022/02/28 10:40:33;;;;;;;1.80;0.40;;;;;;;;;;4113289;28;20066;-59
2022/02/28 10:42:45;;;;;;;2.05;0.30;;;;;;;;;;4113778;28;20517;-60
2022/02/28 10:44:48;;;;;;;0.57;0.30;;;;;;;;;;4104903;28;20054;-56
2022/02/28 10:46:49;;;;;;;1.27;0.35;;;;;;;;;;4109936;28;20063;-59
2022/02/28 10:48:56;;;;;;;2.60;0.40;;;;;;;;;;4110119;28;20055;-57
2022/02/28 10:50:57;;;;;;;0.98;0.38;;;;;;;;;;4109516;28;20367;-60
2022/02/28 10:52:58;;;;;;;0.40;0.20;;;;;;;;;;4107000;28;20146;-60
2022/02/28 10:55:03;;;;;;;1.20;0.30;;;;;;;;;;4095386;28;20078;-57
2022/02/28 10:57:10;;;;;;;0.35;0.35;;;;;;;;;;4105692;28;20043;-60
2022/02/28 10:59:12;;;;;;;0.57;0.38;;;;;;;;;;4110872;28;20051;-55
2022/02/28 11:01:13;;;;;;;0.38;0.28;;;;;;;;;;4091455;28;20051;-58
2022/02/28 11:03:14;;;;;;;2.90;0.30;;;;;;;;;;4105205;28;20043;-59
2022/02/28 11:05:18;;;;;;;1.00;0.30;;;;;;;;;;4109798;28;20054;-60
2022/02/28 11:07:25;;;;;;;2.45;0.30;;;;;;;;;;4106023;28;20387;-60
2022/02/28 11:09:38;;;;;;;0.95;0.28;;;;;;;;;;4090083;28;20534;-58
2022/02/28 11:11:39;;;;;;;0.70;0.30;;;;;;;;;;4109468;28;20418;-60
2022/02/28 11:13:41;;;;;;;0.57;0.32;;;;;;;;;;4112995;28;20124;-59
2022/02/28 11:15:42;;;;;;;0.93;0.32;;;;;;;;;;4114005;28;20519;-61
2022/02/28 11:17:46;;;;;;;0.38;0.30;;;;;;;;;;4112646;28;20121;-61
2022/02/28 11:19:48;;;;;;;0.88;0.30;;;;;;;;;;4113255;28;20400;-60
2022/02/28 11:21:50;;;;;;;0.63;0.40;;;;;;;;;;4113100;28;20051;-59
2022/02/28 11:23:51;;;;;;;0.70;0.40;;;;;;;;;;4090043;28;20059;-60
2022/02/28 11:25:52;;;;;;;0.73;0.30;;;;;;;;;;4094259;29;20055;-60
2022/02/28 11:27:55;;;;;;;0.65;0.30;;;;;;;;;;4101211;28;20070;-60
2022/02/28 11:29:59;;;;;;;0.45;0.30;;;;;;;;;;4095891;29;20082;-60
2022/02/28 11:32:01;;;;;;;0.25;0.20;;;;;;;;;;4107375;28;20137;-59
2022/02/28 11:34:09;;;;;;;0.73;0.20;;;;;;;;;;4111941;28;20067;-59
2022/02/28 11:36:10;;;;;;;0.65;0.45;;;;;;;;;;4105047;28;20050;-57
2022/02/28 11:38:20;;;;;;;0.70;0.30;;;;;;;;;;4112237;28;20046;-60
2022/02/28 11:40:21;;;;;;;;;;;;;;;;;;4113635;28;20051;-59
2022/02/28 11:43:01;;;;;;;0.85;0.40;;;;;;;;;;4119712;28;20421;-60
2022/02/28 11:45:02;;;;;;;0.32;0.10;;;;;;;;;;4108091;28;20058;-59
2022/02/28 11:47:07;;;;;;;0.43;0.20;;;;;;;;;;4115133;28;20073;-60
2022/02/28 11:49:09;;;;;;;0.63;0.20;;;;;;;;;;4115894;28;20216;-60
2022/02/28 11:51:42;;;;;;;1.10;0.40;;;;;;;;;;4108667;28;20054;-59
2022/02/28 11:53:45;;;;;;;1.17;0.43;;;;;;;;;;4098343;28;20055;-59
2022/02/28 11:55:46;;;;;;;0.47;0.32;;;;;;;;;;4108534;28;20134;-59
2022/02/28 11:57:49;;;;;;;0.47;0.30;;;;;;;;;;4111416;28;20059;-60
2022/02/28 11:59:52;;;;;;;0.30;0.20;;;;;;;;;;4106894;28;20050;-59
2022/02/28 12:01:57;;;;;;;0.52;0.38;;;;;;;;;;4105592;28;20405;-58
2022/02/28 12:04:11;;;;;;;0.52;0.22;;;;;;;;;;4110790;28;20054;-60
2022/02/28 12:06:50;;;;;;;0.80;0.30;;;;;;;;;;4108961;28;20056;-60
2022/02/28 12:08:54;;;;;;;1.85;0.25;;;;;;;;;;4112158;28;20054;-59
2022/02/28 12:10:55;;;;;;;0.47;0.30;;;;;;;;;;4102571;28;20059;-60
2022/02/28 12:13:00;;;;;;;0.20;0.20;;;;;;;;;;4106454;28;20514;-59
2022/02/28 12:15:03;;;;;;;0.60;0.25;;;;;;;;;;4105825;28;20463;-60
2022/02/28 12:19:45;;;;;;;0.30;0.20;;;;;;;;;;4068068;29;20384;-59
2022/02/28 12:22:04;;;;;;;0.70;0.30;;;;;;;;;;4058586;29;20051;-58
2022/02/28 12:24:05;;;;;;;0.32;0.22;;;;;;;;;;4062026;28;20052;-58
2022/02/28 12:26:08;;;;;;;0.20;0.20;;;;;;;;;;4089880;28;20063;-57
2022/02/28 12:28:20;;;;;;;0.52;0.28;;;;;;;;;;4104906;28;20133;-58